Time;durP1;ratioP1;P1;durP2;ratioP2;P2;SDS_P1;SDS_P2;PMS_P1;PMS_P2;Temp;Humidity;BMP_temperature;BMP_pressure;BME280_temperature;BME280_humidity;BME280_pressure;Samples;Min_cycle;Max_cycle;Signal;HPM_P1;HPM_P2
2023/08/18 00:02:07;;;;;;;44.75;19.63;;;;;;;;;;5044454;28;20025;-70
2023/08/18 00:04:32;;;;;;;44.22;19.95;;;;;;;;;;5044011;28;20041;-70
2023/08/18 00:06:57;;;;;;;41.80;20.25;;;;;;;;;;5044082;28;20058;-70
2023/08/18 00:09:24;;;;;;;43.03;19.85;;;;;;;;;;5043361;28;20041;-70
2023/08/18 00:11:50;;;;;;;47.17;20.70;;;;;;;;;;5041876;28;20024;-70
2023/08/18 00:14:15;;;;;;;44.38;19.88;;;;;;;;;;5044464;28;20033;-70
2023/08/18 00:16:40;;;;;;;47.90;21.17;;;;;;;;;;5044022;28;20043;-70
2023/08/18 00:19:06;;;;;;;46.75;20.77;;;;;;;;;;5038601;28;20041;-69
2023/08/18 00:21:32;;;;;;;42.97;19.77;;;;;;;;;;5042405;28;20039;-70
2023/08/18 00:23:57;;;;;;;46.40;20.23;;;;;;;;;;5044326;28;20031;-70
2023/08/18 00:26:22;;;;;;;48.83;21.13;;;;;;;;;;5054652;28;20103;-70
2023/08/18 00:28:48;;;;;;;42.65;19.95;;;;;;;;;;5045431;28;20041;-70
2023/08/18 00:31:13;;;;;;;44.85;21.02;;;;;;;;;;5042971;28;20049;-70
2023/08/18 00:33:39;;;;;;;44.35;20.02;;;;;;;;;;5042308;28;20031;-70
2023/08/18 00:36:04;;;;;;;41.50;20.20;;;;;;;;;;5044145;28;20060;-70
2023/08/18 00:38:30;;;;;;;45.15;20.70;;;;;;;;;;5043833;28;20239;-71
2023/08/18 00:40:55;;;;;;;44.75;20.60;;;;;;;;;;5043698;28;20071;-70
2023/08/18 00:43:22;;;;;;;45.88;21.15;;;;;;;;;;5041204;28;20791;-70
2023/08/18 00:45:48;;;;;;;44.92;20.45;;;;;;;;;;5040361;28;20082;-70
2023/08/18 00:48:13;;;;;;;51.50;21.90;;;;;;;;;;5030166;28;20597;-69
2023/08/18 00:50:39;;;;;;;51.05;21.42;;;;;;;;;;5043086;28;20128;-70
2023/08/18 00:53:05;;;;;;;47.40;21.30;;;;;;;;;;5042825;28;20036;-69
2023/08/18 00:55:31;;;;;;;48.75;21.00;;;;;;;;;;5043272;28;20037;-69
2023/08/18 00:58:00;;;;;;;53.00;21.60;;;;;;;;;;5042643;28;20167;-70
2023/08/18 01:00:26;;;;;;;56.10;22.38;;;;;;;;;;5043245;28;20036;-70
2023/08/18 01:02:52;;;;;;;51.72;22.88;;;;;;;;;;5042723;28;20120;-69
2023/08/18 01:05:18;;;;;;;53.58;22.08;;;;;;;;;;5042089;28;20111;-70
2023/08/18 01:07:45;;;;;;;49.35;21.33;;;;;;;;;;5042573;28;20037;-70
2023/08/18 01:10:10;;;;;;;47.17;21.65;;;;;;;;;;5042936;28;20041;-70
2023/08/18 01:12:45;;;;;;;50.20;22.23;;;;;;;;;;5042351;28;20041;-70
2023/08/18 01:15:30;;;;;;;54.10;21.98;;;;;;;;;;5042725;28;20110;-70
2023/08/18 01:18:00;;;;;;;52.00;22.83;;;;;;;;;;5042504;28;20040;-69
2023/08/18 01:20:27;;;;;;;53.05;22.52;;;;;;;;;;5035604;28;20399;-70
2023/08/18 01:23:02;;;;;;;49.97;20.65;;;;;;;;;;5042703;28;20047;-70
2023/08/18 01:25:28;;;;;;;47.17;21.13;;;;;;;;;;5046287;28;20029;-70
2023/08/18 01:27:55;;;;;;;54.30;22.15;;;;;;;;;;5052649;28;20041;-70
2023/08/18 01:30:26;;;;;;;56.08;23.48;;;;;;;;;;5042407;28;20044;-69
2023/08/18 01:33:14;;;;;;;55.80;21.48;;;;;;;;;;5042683;28;20037;-69
2023/08/18 01:35:42;;;;;;;50.20;22.52;;;;;;;;;;5029845;28;20052;-70
2023/08/18 01:38:09;;;;;;;51.13;22.17;;;;;;;;;;5022255;28;20037;-70
2023/08/18 01:40:36;;;;;;;52.25;21.02;;;;;;;;;;5038741;28;20115;-69
2023/08/18 01:43:03;;;;;;;55.47;22.13;;;;;;;;;;5040951;28;20029;-70
2023/08/18 01:45:29;;;;;;;51.17;21.85;;;;;;;;;;5035596;28;20022;-69
2023/08/18 01:47:54;;;;;;;55.47;22.13;;;;;;;;;;5023062;28;20025;-69
2023/08/18 01:50:20;;;;;;;49.63;21.17;;;;;;;;;;5023249;28;20581;-69
2023/08/18 01:52:45;;;;;;;50.90;21.58;;;;;;;;;;5022903;28;20038;-69
2023/08/18 01:55:10;;;;;;;53.17;22.40;;;;;;;;;;5022499;28;20633;-69
2023/08/18 01:57:36;;;;;;;52.92;22.05;;;;;;;;;;5022316;28;20052;-69
2023/08/18 02:00:01;;;;;;;55.45;22.08;;;;;;;;;;5022689;28;20163;-69
2023/08/18 02:02:26;;;;;;;61.38;24.25;;;;;;;;;;5024583;28;20104;-69
2023/08/18 02:04:55;;;;;;;53.88;21.55;;;;;;;;;;5026140;28;20037;-70
2023/08/18 02:07:20;;;;;;;54.78;22.80;;;;;;;;;;5026204;28;20131;-70
2023/08/18 02:09:45;;;;;;;50.65;21.55;;;;;;;;;;5026254;28;20473;-69
2023/08/18 02:12:11;;;;;;;51.33;21.00;;;;;;;;;;5025509;28;20033;-69
2023/08/18 02:14:37;;;;;;;53.53;21.33;;;;;;;;;;5026756;28;20075;-69
2023/08/18 02:17:02;;;;;;;49.03;20.73;;;;;;;;;;5026003;28;20037;-69
2023/08/18 02:19:28;;;;;;;46.83;20.42;;;;;;;;;;5024796;28;20033;-69
2023/08/18 02:21:54;;;;;;;46.92;20.52;;;;;;;;;;5025855;28;20034;-69
2023/08/18 02:24:19;;;;;;;42.72;20.48;;;;;;;;;;5024777;28;20037;-69
2023/08/18 02:26:44;;;;;;;48.22;19.25;;;;;;;;;;5039315;28;20095;-69
2023/08/18 02:29:10;;;;;;;48.47;21.85;;;;;;;;;;5045543;28;20120;-70
2023/08/18 02:31:36;;;;;;;47.92;20.27;;;;;;;;;;5045424;28;20414;-70
2023/08/18 02:34:02;;;;;;;47.30;20.60;;;;;;;;;;5049505;28;20043;-70
2023/08/18 02:36:27;;;;;;;44.25;20.23;;;;;;;;;;5057062;28;20036;-70
2023/08/18 02:38:52;;;;;;;50.70;21.73;;;;;;;;;;5061025;28;20103;-70
2023/08/18 02:41:18;;;;;;;49.53;21.02;;;;;;;;;;5046190;28;20047;-70
2023/08/18 02:43:47;;;;;;;54.83;20.30;;;;;;;;;;5043532;28;20186;-69
2023/08/18 02:46:12;;;;;;;48.65;19.55;;;;;;;;;;5046324;28;20060;-70
2023/08/18 02:48:37;;;;;;;49.38;19.50;;;;;;;;;;5057131;28;20041;-70
2023/08/18 02:51:04;;;;;;;49.78;21.33;;;;;;;;;;5056199;28;20107;-69
2023/08/18 02:53:30;;;;;;;49.25;20.48;;;;;;;;;;5051244;28;20055;-70
2023/08/18 02:55:56;;;;;;;44.88;19.98;;;;;;;;;;5044897;28;20791;-70
2023/08/18 02:58:24;;;;;;;45.17;20.17;;;;;;;;;;5044949;28;20036;-70
2023/08/18 03:00:49;;;;;;;46.33;20.13;;;;;;;;;;5056883;28;20040;-70
2023/08/18 03:03:15;;;;;;;46.00;19.40;;;;;;;;;;5052033;28;20044;-70
2023/08/18 03:05:40;;;;;;;48.28;18.83;;;;;;;;;;5044602;28;20371;-70
2023/08/18 03:08:05;;;;;;;50.63;20.67;;;;;;;;;;5041024;28;20410;-70
2023/08/18 03:10:31;;;;;;;47.30;20.88;;;;;;;;;;5031670;28;20415;-70
2023/08/18 03:12:57;;;;;;;47.75;20.88;;;;;;;;;;5045217;28;20041;-70
2023/08/18 03:15:22;;;;;;;50.78;20.83;;;;;;;;;;5044259;28;20033;-70
2023/08/18 03:17:49;;;;;;;46.90;19.30;;;;;;;;;;5044396;28;20546;-69
2023/08/18 03:20:14;;;;;;;49.88;21.30;;;;;;;;;;5044932;28;20029;-70
2023/08/18 03:22:39;;;;;;;52.88;21.45;;;;;;;;;;5044657;28;20040;-70
2023/08/18 03:25:05;;;;;;;48.88;20.77;;;;;;;;;;5050296;28;20036;-70
2023/08/18 03:27:31;;;;;;;52.65;20.73;;;;;;;;;;5035151;28;20031;-70
2023/08/18 03:29:56;;;;;;;49.70;21.27;;;;;;;;;;5044520;28;20805;-70
2023/08/18 03:32:25;;;;;;;48.17;19.95;;;;;;;;;;5044249;28;20091;-70
2023/08/18 03:34:52;;;;;;;58.95;21.95;;;;;;;;;;5044608;28;20882;-70
2023/08/18 03:37:17;;;;;;;48.05;20.65;;;;;;;;;;5042765;28;20527;-70
2023/08/18 03:39:43;;;;;;;53.22;21.27;;;;;;;;;;5044169;28;20518;-70
2023/08/18 03:42:08;;;;;;;48.85;21.17;;;;;;;;;;5043663;28;20028;-70
2023/08/18 03:44:33;;;;;;;48.13;20.10;;;;;;;;;;5039451;28;20062;-70
2023/08/18 03:46:59;;;;;;;48.83;20.15;;;;;;;;;;5042893;28;20086;-70
2023/08/18 03:49:24;;;;;;;47.13;20.50;;;;;;;;;;5045730;28;20099;-70
2023/08/18 03:51:50;;;;;;;50.85;20.67;;;;;;;;;;5047177;28;20044;-70
2023/08/18 03:54:15;;;;;;;55.70;21.92;;;;;;;;;;5043936;28;20057;-70
2023/08/18 03:56:40;;;;;;;52.20;20.17;;;;;;;;;;5046284;28;20029;-70
2023/08/18 03:59:06;;;;;;;57.78;21.17;;;;;;;;;;5050279;28;20074;-71
2023/08/18 04:01:31;;;;;;;54.78;21.88;;;;;;;;;;5050161;28;20564;-70
2023/08/18 04:03:59;;;;;;;51.40;19.90;;;;;;;;;;5044010;28;20576;-70
2023/08/18 04:06:24;;;;;;;58.88;22.08;;;;;;;;;;5042454;28;20028;-71
2023/08/18 04:09:06;;;;;;;52.40;22.23;;;;;;;;;;5043819;28;20390;-70
2023/08/18 04:11:33;;;;;;;52.70;20.00;;;;;;;;;;5043617;28;20094;-71
2023/08/18 04:13:58;;;;;;;52.55;20.35;;;;;;;;;;5044139;28;20052;-71
2023/08/18 04:16:23;;;;;;;54.45;21.20;;;;;;;;;;5043329;28;20072;-71
2023/08/18 04:18:49;;;;;;;54.88;22.40;;;;;;;;;;5043508;28;20052;-71
2023/08/18 04:21:14;;;;;;;54.78;21.60;;;;;;;;;;5043403;28;20029;-70
2023/08/18 04:23:39;;;;;;;51.17;21.17;;;;;;;;;;5044150;28;20068;-70
2023/08/18 04:26:05;;;;;;;62.25;22.80;;;;;;;;;;5043395;28;20033;-71
2023/08/18 04:28:30;;;;;;;66.07;23.55;;;;;;;;;;5043285;28;20033;-70
2023/08/18 04:30:56;;;;;;;66.15;22.95;;;;;;;;;;5042585;28;20047;-70
2023/08/18 04:33:21;;;;;;;62.88;23.25;;;;;;;;;;5043117;28;20025;-70
2023/08/18 04:35:46;;;;;;;60.00;23.10;;;;;;;;;;5043691;28;20033;-70
2023/08/18 04:38:13;;;;;;;56.45;22.00;;;;;;;;;;5043646;28;20020;-70
2023/08/18 04:40:39;;;;;;;61.40;22.58;;;;;;;;;;5043334;28;20059;-70
2023/08/18 04:43:05;;;;;;;57.03;21.33;;;;;;;;;;5041722;28;20032;-70
2023/08/18 04:45:30;;;;;;;57.28;21.88;;;;;;;;;;5031371;28;20033;-71
2023/08/18 04:47:56;;;;;;;58.53;21.45;;;;;;;;;;5043075;28;20082;-70
2023/08/18 04:50:21;;;;;;;60.20;22.73;;;;;;;;;;5043123;28;20246;-71
2023/08/18 04:52:46;;;;;;;67.65;22.85;;;;;;;;;;5038641;28;20119;-70
2023/08/18 04:55:12;;;;;;;68.05;22.45;;;;;;;;;;5042735;28;20533;-70
2023/08/18 04:57:37;;;;;;;62.95;21.70;;;;;;;;;;5042885;28;20033;-71
2023/08/18 05:00:05;;;;;;;58.03;22.15;;;;;;;;;;5043462;28;20039;-70
2023/08/18 05:02:30;;;;;;;60.45;22.00;;;;;;;;;;5043452;28;20025;-71
2023/08/18 05:04:55;;;;;;;63.35;21.15;;;;;;;;;;5042670;28;20391;-71
2023/08/18 05:07:22;;;;;;;63.90;22.35;;;;;;;;;;5042566;28;20044;-70
2023/08/18 05:09:47;;;;;;;63.35;22.10;;;;;;;;;;5042975;28;20063;-70
2023/08/18 05:12:12;;;;;;;61.47;22.08;;;;;;;;;;5042535;28;20033;-70
2023/08/18 05:14:38;;;;;;;59.63;21.67;;;;;;;;;;5043432;28;20543;-70
2023/08/18 05:17:03;;;;;;;67.38;23.48;;;;;;;;;;5042695;28;20041;-69
2023/08/18 05:19:28;;;;;;;62.75;21.95;;;;;;;;;;5042540;28;20071;-70
2023/08/18 05:21:55;;;;;;;64.20;22.95;;;;;;;;;;5043130;28;20099;-69
2023/08/18 05:24:20;;;;;;;62.50;22.67;;;;;;;;;;5042374;28;20095;-69
2023/08/18 05:26:45;;;;;;;57.08;21.23;;;;;;;;;;5042909;28;20094;-69
2023/08/18 05:29:11;;;;;;;53.35;20.38;;;;;;;;;;5043242;28;20025;-69
2023/08/18 05:31:37;;;;;;;61.25;22.13;;;;;;;;;;5041978;28;20580;-69
2023/08/18 05:34:03;;;;;;;59.60;22.20;;;;;;;;;;5042891;28;20033;-70
2023/08/18 05:36:31;;;;;;;65.38;22.13;;;;;;;;;;5042733;28;20174;-69
2023/08/18 05:38:57;;;;;;;65.10;22.10;;;;;;;;;;5045663;28;20029;-70
2023/08/18 05:41:23;;;;;;;55.15;21.88;;;;;;;;;;5047869;28;20044;-70
2023/08/18 05:43:48;;;;;;;63.00;22.15;;;;;;;;;;5059323;28;20041;-70
2023/08/18 05:46:13;;;;;;;63.70;22.38;;;;;;;;;;5046143;28;20040;-70
2023/08/18 05:48:39;;;;;;;66.50;22.50;;;;;;;;;;5045208;28;20127;-70
2023/08/18 05:51:04;;;;;;;66.20;21.42;;;;;;;;;;5053611;28;20036;-69
2023/08/18 05:53:31;;;;;;;55.10;20.02;;;;;;;;;;5053064;28;20029;-70
2023/08/18 05:55:56;;;;;;;60.65;22.05;;;;;;;;;;5044761;28;20466;-70
2023/08/18 05:58:21;;;;;;;62.50;20.65;;;;;;;;;;5046401;28;20548;-70
2023/08/18 06:00:50;;;;;;;62.83;20.83;;;;;;;;;;5045161;28;20080;-69
2023/08/18 06:03:19;;;;;;;57.30;19.55;;;;;;;;;;5046528;28;20574;-70
2023/08/18 06:05:46;;;;;;;63.13;22.13;;;;;;;;;;5046735;28;20036;-69
2023/08/18 06:08:11;;;;;;;58.22;20.70;;;;;;;;;;5046511;28;20021;-70
2023/08/18 06:10:37;;;;;;;63.72;22.95;;;;;;;;;;5046022;28;20059;-70
2023/08/18 06:13:02;;;;;;;65.68;22.00;;;;;;;;;;5045718;28;20068;-70
2023/08/18 06:15:27;;;;;;;62.13;20.98;;;;;;;;;;5044485;28;20068;-70
2023/08/18 06:17:53;;;;;;;61.42;21.30;;;;;;;;;;5045520;28;20025;-70
2023/08/18 06:20:18;;;;;;;59.55;20.52;;;;;;;;;;5046547;28;20074;-70
2023/08/18 06:22:44;;;;;;;59.58;22.35;;;;;;;;;;5045970;28;20127;-70
2023/08/18 06:25:11;;;;;;;64.63;21.98;;;;;;;;;;5045094;28;20045;-70
2023/08/18 06:27:36;;;;;;;59.55;21.95;;;;;;;;;;5045831;28;20040;-70
2023/08/18 06:30:02;;;;;;;60.75;20.73;;;;;;;;;;5043489;28;20041;-70
2023/08/18 06:32:28;;;;;;;57.35;20.88;;;;;;;;;;5043595;28;20032;-70
2023/08/18 06:34:53;;;;;;;59.22;21.15;;;;;;;;;;5032613;28;20045;-70
2023/08/18 06:37:19;;;;;;;53.67;19.70;;;;;;;;;;5029848;28;20064;-69
2023/08/18 06:39:45;;;;;;;55.92;19.33;;;;;;;;;;5040675;28;20044;-70
2023/08/18 06:42:12;;;;;;;57.85;20.75;;;;;;;;;;5040708;28;20119;-70
2023/08/18 06:44:37;;;;;;;56.78;20.30;;;;;;;;;;5031931;28;20403;-70
2023/08/18 06:47:03;;;;;;;53.75;18.88;;;;;;;;;;5045531;28;20036;-70
2023/08/18 06:49:28;;;;;;;57.72;21.50;;;;;;;;;;5042006;28;20896;-70
2023/08/18 06:51:53;;;;;;;63.28;21.75;;;;;;;;;;5057263;28;20036;-70
2023/08/18 06:54:19;;;;;;;55.72;21.05;;;;;;;;;;5035253;28;20524;-70
2023/08/18 06:56:44;;;;;;;59.83;20.80;;;;;;;;;;5043871;28;20025;-69
2023/08/18 06:59:13;;;;;;;56.95;21.05;;;;;;;;;;5046289;28;20048;-70
2023/08/18 07:01:40;;;;;;;58.25;21.20;;;;;;;;;;5044745;28;20043;-70
2023/08/18 07:04:06;;;;;;;68.18;22.23;;;;;;;;;;5044515;28;20067;-70
2023/08/18 07:06:32;;;;;;;57.45;21.10;;;;;;;;;;5043571;28;20116;-70
2023/08/18 07:08:58;;;;;;;57.78;21.27;;;;;;;;;;5041894;28;20072;-70
2023/08/18 07:11:23;;;;;;;55.97;21.48;;;;;;;;;;5041903;28;20529;-70
2023/08/18 07:13:48;;;;;;;61.65;22.38;;;;;;;;;;5040690;28;20450;-70
2023/08/18 07:16:14;;;;;;;62.22;22.00;;;;;;;;;;5040349;28;20040;-70
2023/08/18 07:18:39;;;;;;;63.35;22.05;;;;;;;;;;5033594;28;20041;-70
2023/08/18 07:21:05;;;;;;;60.15;21.65;;;;;;;;;;5036570;28;20056;-70
2023/08/18 07:23:30;;;;;;;56.03;20.90;;;;;;;;;;5042877;28;20506;-70
2023/08/18 07:25:55;;;;;;;52.17;20.20;;;;;;;;;;5039727;28;20029;-70
2023/08/18 07:28:21;;;;;;;56.65;20.17;;;;;;;;;;5041344;28;20045;-70
2023/08/18 07:30:46;;;;;;;56.63;21.27;;;;;;;;;;5021341;28;20068;-70
2023/08/18 07:33:12;;;;;;;56.10;20.40;;;;;;;;;;5025226;28;20533;-71
2023/08/18 07:35:38;;;;;;;51.95;20.33;;;;;;;;;;5036765;28;20532;-71
2023/08/18 07:38:04;;;;;;;50.67;19.10;;;;;;;;;;5039108;28;20045;-70
2023/08/18 07:40:30;;;;;;;55.78;20.75;;;;;;;;;;5039328;28;20056;-71
2023/08/18 07:42:55;;;;;;;54.05;19.80;;;;;;;;;;5018634;28;20092;-70
2023/08/18 07:45:21;;;;;;;53.67;19.80;;;;;;;;;;5024197;28;20033;-70
2023/08/18 07:47:47;;;;;;;54.25;20.23;;;;;;;;;;5022687;28;20376;-69
2023/08/18 07:50:13;;;;;;;51.67;19.83;;;;;;;;;;5022284;28;20033;-69
2023/08/18 07:52:40;;;;;;;51.75;18.55;;;;;;;;;;5021005;28;20140;-71
2023/08/18 07:55:07;;;;;;;64.80;20.38;;;;;;;;;;5035232;28;20035;-71
2023/08/18 07:57:33;;;;;;;51.08;19.35;;;;;;;;;;5032178;28;20056;-71
2023/08/18 08:00:07;;;;;;;51.20;19.27;;;;;;;;;;5035481;28;20024;-70
2023/08/18 08:02:32;;;;;;;58.72;20.23;;;;;;;;;;5031894;28;20040;-71
2023/08/18 08:04:58;;;;;;;54.30;19.50;;;;;;;;;;5031906;28;20045;-70
2023/08/18 08:07:24;;;;;;;58.53;20.67;;;;;;;;;;5024994;28;20037;-71
2023/08/18 08:09:50;;;;;;;56.72;19.52;;;;;;;;;;5018849;28;20037;-71
2023/08/18 08:12:16;;;;;;;51.42;18.92;;;;;;;;;;5016575;28;20094;-71
2023/08/18 08:14:42;;;;;;;51.67;19.52;;;;;;;;;;5019218;28;20086;-70
2023/08/18 08:17:08;;;;;;;50.00;19.10;;;;;;;;;;5010000;28;20065;-71
2023/08/18 08:19:33;;;;;;;49.20;19.65;;;;;;;;;;5013104;28;20073;-70
2023/08/18 08:21:58;;;;;;;51.00;19.83;;;;;;;;;;5017058;28;20426;-70
2023/08/18 08:24:24;;;;;;;55.80;20.75;;;;;;;;;;5020415;28;20033;-70
2023/08/18 08:26:49;;;;;;;48.42;18.83;;;;;;;;;;5019631;28;20037;-70
2023/08/18 08:29:14;;;;;;;49.45;18.80;;;;;;;;;;5008618;28;20585;-70
2023/08/18 08:31:40;;;;;;;44.83;17.85;;;;;;;;;;5001339;28;20045;-70
2023/08/18 08:34:05;;;;;;;46.67;18.73;;;;;;;;;;5009584;28;20042;-69
2023/08/18 08:36:32;;;;;;;46.38;18.63;;;;;;;;;;5002644;28;20045;-69
2023/08/18 08:39:01;;;;;;;43.85;17.52;;;;;;;;;;5011833;28;20044;-69
2023/08/18 08:41:27;;;;;;;42.05;17.10;;;;;;;;;;5034257;28;20033;-69
2023/08/18 08:43:53;;;;;;;40.17;17.30;;;;;;;;;;5038385;28;20037;-69
2023/08/18 08:46:18;;;;;;;38.53;16.40;;;;;;;;;;5035473;28;20083;-69
2023/08/18 08:48:47;;;;;;;42.80;16.83;;;;;;;;;;5037644;28;20596;-70
2023/08/18 08:51:14;;;;;;;34.03;14.95;;;;;;;;;;5039761;28;20063;-69
2023/08/18 08:53:54;;;;;;;38.80;16.42;;;;;;;;;;5034628;28;20020;-68
2023/08/18 08:56:20;;;;;;;37.97;16.73;;;;;;;;;;5016727;28;20048;-69
2023/08/18 08:58:46;;;;;;;37.67;16.13;;;;;;;;;;5017908;28;20853;-70
2023/08/18 09:01:11;;;;;;;37.38;16.63;;;;;;;;;;5017614;28;20091;-69
2023/08/18 09:03:37;;;;;;;36.25;15.85;;;;;;;;;;5018348;28;20124;-69
2023/08/18 09:06:02;;;;;;;34.03;15.15;;;;;;;;;;5020524;28;20037;-69
2023/08/18 09:08:28;;;;;;;41.17;17.52;;;;;;;;;;5031649;28;20052;-68
2023/08/18 09:10:54;;;;;;;43.30;17.00;;;;;;;;;;5028465;28;20111;-69
2023/08/18 09:13:20;;;;;;;39.72;17.00;;;;;;;;;;5018025;28;20045;-69
2023/08/18 09:15:47;;;;;;;39.17;16.90;;;;;;;;;;5017053;28;20048;-69
2023/08/18 09:18:12;;;;;;;41.70;16.35;;;;;;;;;;5031008;28;20628;-69
2023/08/18 09:20:38;;;;;;;38.97;15.57;;;;;;;;;;5033809;28;20107;-69
2023/08/18 09:23:04;;;;;;;39.55;16.73;;;;;;;;;;5038049;28;20047;-70
2023/08/18 09:25:36;;;;;;;39.10;16.67;;;;;;;;;;5033628;28;20047;-69
2023/08/18 09:28:03;;;;;;;39.75;16.60;;;;;;;;;;5037123;28;20113;-69
2023/08/18 09:30:30;;;;;;;39.55;17.30;;;;;;;;;;5041777;28;20060;-69
2023/08/18 09:32:56;;;;;;;36.63;15.85;;;;;;;;;;5039220;28;20114;-70
2023/08/18 09:35:22;;;;;;;37.90;17.42;;;;;;;;;;5040592;28;20414;-69
2023/08/18 09:37:57;;;;;;;36.28;17.95;;;;;;;;;;5038418;28;20098;-71
2023/08/18 09:40:23;;;;;;;40.03;16.42;;;;;;;;;;5039079;28;20071;-71
2023/08/18 09:42:49;;;;;;;33.28;16.23;;;;;;;;;;5040532;28;20585;-71
2023/08/18 09:45:14;;;;;;;35.45;15.23;;;;;;;;;;5030301;28;20120;-70
2023/08/18 09:47:42;;;;;;;37.08;16.13;;;;;;;;;;5040772;28;20044;-70
2023/08/18 09:50:10;;;;;;;33.47;15.52;;;;;;;;;;5038898;28;20053;-70
2023/08/18 09:52:38;;;;;;;31.48;15.30;;;;;;;;;;5019892;28;20856;-70
2023/08/18 09:55:12;;;;;;;34.38;16.45;;;;;;;;;;5020242;28;20040;-71
2023/08/18 09:57:52;;;;;;;32.15;14.88;;;;;;;;;;5020831;28;20132;-70
2023/08/18 10:00:19;;;;;;;33.15;16.33;;;;;;;;;;5019708;28;20029;-70
2023/08/18 10:02:47;;;;;;;31.45;14.95;;;;;;;;;;5018454;28;20028;-70
2023/08/18 10:05:14;;;;;;;30.27;15.38;;;;;;;;;;5014192;28;20871;-69
2023/08/18 10:07:39;;;;;;;32.10;15.90;;;;;;;;;;5023598;28;20034;-71
2023/08/18 10:10:06;;;;;;;31.35;15.57;;;;;;;;;;5038780;28;20052;-70
2023/08/18 10:12:32;;;;;;;30.90;16.17;;;;;;;;;;5040555;28;20783;-70
2023/08/18 10:14:58;;;;;;;32.13;15.35;;;;;;;;;;5039301;28;20307;-70
2023/08/18 10:17:24;;;;;;;35.55;16.23;;;;;;;;;;5039134;28;20395;-70
2023/08/18 10:19:58;;;;;;;30.00;15.20;;;;;;;;;;5036404;28;20636;-70
2023/08/18 10:22:25;;;;;;;33.92;15.95;;;;;;;;;;5023634;28;20044;-71
2023/08/18 10:24:52;;;;;;;31.33;16.58;;;;;;;;;;5023468;28;20755;-71
2023/08/18 10:27:26;;;;;;;35.60;16.73;;;;;;;;;;5028756;28;20055;-71
2023/08/18 10:30:18;;;;;;;32.45;16.45;;;;;;;;;;5043993;28;20057;-71
2023/08/18 10:32:43;;;;;;;30.83;16.00;;;;;;;;;;5034316;28;20037;-70
2023/08/18 10:35:28;;;;;;;31.17;16.05;;;;;;;;;;5042399;28;20040;-71
2023/08/18 10:38:04;;;;;;;30.90;16.13;;;;;;;;;;5043131;28;20045;-71
2023/08/18 10:40:33;;;;;;;31.13;15.98;;;;;;;;;;5042019;28;20037;-71
2023/08/18 10:43:03;;;;;;;32.97;15.80;;;;;;;;;;5030948;28;20721;-71
2023/08/18 10:45:29;;;;;;;31.85;15.45;;;;;;;;;;5026039;28;20037;-70
2023/08/18 10:47:59;;;;;;;31.83;16.00;;;;;;;;;;5040022;28;20544;-71
2023/08/18 10:50:27;;;;;;;28.83;15.65;;;;;;;;;;5036044;28;20124;-70
2023/08/18 10:52:54;;;;;;;31.38;16.52;;;;;;;;;;5037634;28;20036;-70
2023/08/18 10:55:21;;;;;;;33.00;16.85;;;;;;;;;;5040108;28;20025;-70
2023/08/18 10:57:47;;;;;;;32.75;17.48;;;;;;;;;;5040542;28;20033;-71
2023/08/18 11:00:13;;;;;;;30.23;16.77;;;;;;;;;;5040696;28;20029;-70
2023/08/18 11:02:38;;;;;;;30.88;16.83;;;;;;;;;;5030942;28;20060;-70
2023/08/18 11:05:06;;;;;;;35.75;16.65;;;;;;;;;;5035375;28;20033;-70
2023/08/18 11:07:31;;;;;;;30.35;16.13;;;;;;;;;;5040097;28;20449;-71
2023/08/18 11:09:57;;;;;;;31.48;15.90;;;;;;;;;;5040058;28;20620;-70
2023/08/18 11:12:22;;;;;;;31.83;15.40;;;;;;;;;;5033319;28;20066;-71
2023/08/18 11:14:48;;;;;;;29.67;15.05;;;;;;;;;;5037224;28;20187;-71
2023/08/18 11:17:14;;;;;;;31.33;15.93;;;;;;;;;;5034236;28;20579;-71
2023/08/18 11:19:39;;;;;;;28.90;14.75;;;;;;;;;;5040961;28;20124;-71
2023/08/18 11:22:04;;;;;;;29.73;16.27;;;;;;;;;;5041676;28;20537;-71
2023/08/18 11:24:30;;;;;;;30.70;15.88;;;;;;;;;;5042248;28;20072;-70
2023/08/18 11:26:56;;;;;;;31.45;16.15;;;;;;;;;;5041059;28;20406;-71
2023/08/18 11:29:22;;;;;;;28.77;15.43;;;;;;;;;;5042949;28;20021;-70
2023/08/18 11:31:48;;;;;;;26.67;14.57;;;;;;;;;;5041643;28;20033;-71
2023/08/18 11:34:14;;;;;;;27.27;15.15;;;;;;;;;;5038077;28;20098;-70
2023/08/18 11:36:40;;;;;;;28.35;15.70;;;;;;;;;;5030548;28;20041;-70
2023/08/18 11:39:09;;;;;;;30.58;15.90;;;;;;;;;;5035046;28;20037;-70
2023/08/18 11:41:39;;;;;;;29.33;15.93;;;;;;;;;;5032138;28;20584;-71
2023/08/18 11:44:08;;;;;;;31.65;16.63;;;;;;;;;;5041736;28;20039;-71
2023/08/18 11:46:38;;;;;;;29.33;15.55;;;;;;;;;;5041873;28;20040;-71
2023/08/18 11:49:16;;;;;;;28.95;16.38;;;;;;;;;;5042734;28;20492;-71
2023/08/18 11:51:54;;;;;;;31.10;15.95;;;;;;;;;;5039085;28;20029;-71
2023/08/18 11:54:20;;;;;;;29.60;15.50;;;;;;;;;;5030589;28;20525;-69
2023/08/18 11:56:45;;;;;;;33.45;17.58;;;;;;;;;;5038866;28;20505;-70
2023/08/18 11:59:21;;;;;;;29.13;15.38;;;;;;;;;;5042201;28;20025;-70
2023/08/18 12:01:51;;;;;;;28.38;14.13;;;;;;;;;;5041367;28;20146;-68
2023/08/18 12:04:17;;;;;;;25.17;14.52;;;;;;;;;;5037545;28;20069;-70
2023/08/18 12:06:42;;;;;;;29.40;14.93;;;;;;;;;;5024145;28;20062;-70
2023/08/18 12:09:12;;;;;;;29.88;15.77;;;;;;;;;;5018960;28;20045;-73
2023/08/18 12:11:38;;;;;;;28.75;15.45;;;;;;;;;;5017521;28;20033;-70
2023/08/18 12:14:04;;;;;;;29.42;15.40;;;;;;;;;;5015624;28;20124;-70
2023/08/18 12:16:29;;;;;;;33.30;16.70;;;;;;;;;;5023230;28;20129;-70
2023/08/18 12:18:54;;;;;;;29.50;15.30;;;;;;;;;;5010573;28;20054;-70
2023/08/18 12:21:20;;;;;;;28.67;15.30;;;;;;;;;;5019447;28;20029;-70
2023/08/18 12:23:45;;;;;;;24.52;15.60;;;;;;;;;;5021662;28;20573;-70
2023/08/18 12:26:11;;;;;;;25.52;14.00;;;;;;;;;;5022423;28;20502;-69
2023/08/18 12:28:36;;;;;;;25.50;13.73;;;;;;;;;;5018152;28;20458;-70
2023/08/18 12:31:03;;;;;;;28.90;15.40;;;;;;;;;;5013894;28;20058;-70
2023/08/18 12:33:28;;;;;;;26.88;15.02;;;;;;;;;;5019147;28;20055;-70
2023/08/18 12:35:54;;;;;;;28.40;14.75;;;;;;;;;;5018462;28;20037;-69
2023/08/18 12:38:19;;;;;;;27.50;14.75;;;;;;;;;;5031546;28;20025;-69
2023/08/18 12:40:45;;;;;;;25.75;14.60;;;;;;;;;;5035957;28;20040;-70
2023/08/18 12:43:10;;;;;;;22.80;12.90;;;;;;;;;;5047841;28;20037;-70
2023/08/18 12:45:36;;;;;;;19.35;11.63;;;;;;;;;;5033007;28;20414;-70
2023/08/18 12:48:02;;;;;;;21.33;13.55;;;;;;;;;;5038082;28;20098;-69
2023/08/18 12:50:28;;;;;;;20.33;13.02;;;;;;;;;;5040870;28;20025;-70
2023/08/18 12:52:53;;;;;;;19.90;12.40;;;;;;;;;;5034779;28;20043;-70
2023/08/18 12:55:18;;;;;;;23.77;12.52;;;;;;;;;;5042693;28;20037;-70
2023/08/18 12:57:45;;;;;;;21.40;13.32;;;;;;;;;;5037860;28;20615;-70
2023/08/18 13:00:11;;;;;;;20.08;12.20;;;;;;;;;;5037869;28;20774;-70
2023/08/18 13:02:37;;;;;;;20.55;12.10;;;;;;;;;;5037700;28;20055;-69
2023/08/18 13:05:03;;;;;;;19.50;13.10;;;;;;;;;;5027716;28;20041;-70
2023/08/18 13:07:28;;;;;;;19.60;12.23;;;;;;;;;;5038238;28;20131;-70
2023/08/18 13:09:53;;;;;;;16.55;10.75;;;;;;;;;;5037756;28;20815;-70
2023/08/18 13:12:19;;;;;;;21.90;12.25;;;;;;;;;;5039644;28;20040;-70
2023/08/18 13:14:45;;;;;;;21.45;12.98;;;;;;;;;;5036191;28;20032;-69
2023/08/18 13:17:11;;;;;;;18.40;11.77;;;;;;;;;;5034812;28;20114;-70
2023/08/18 13:19:37;;;;;;;18.65;11.07;;;;;;;;;;5039573;28;20033;-69
2023/08/18 13:22:02;;;;;;;18.63;11.73;;;;;;;;;;5038659;28;20033;-70
2023/08/18 13:24:28;;;;;;;18.17;12.20;;;;;;;;;;5038206;28;20089;-69
2023/08/18 13:26:55;;;;;;;22.23;12.43;;;;;;;;;;5046264;28;20028;-70
2023/08/18 13:29:21;;;;;;;15.77;10.85;;;;;;;;;;5046797;28;20021;-70
2023/08/18 13:31:48;;;;;;;20.58;10.90;;;;;;;;;;5039841;28;20135;-70
2023/08/18 13:34:13;;;;;;;19.52;10.95;;;;;;;;;;5040664;28;20067;-70
2023/08/18 13:36:40;;;;;;;16.80;11.55;;;;;;;;;;5040587;28;20073;-70
2023/08/18 13:39:06;;;;;;;20.70;11.35;;;;;;;;;;5040333;28;20033;-70
2023/08/18 13:41:31;;;;;;;17.52;10.63;;;;;;;;;;5043252;28;20952;-70
2023/08/18 13:43:57;;;;;;;17.17;10.32;;;;;;;;;;5036275;28;20036;-70
2023/08/18 13:46:22;;;;;;;18.77;10.90;;;;;;;;;;5040344;28;20511;-70
2023/08/18 13:48:48;;;;;;;16.35;10.98;;;;;;;;;;5040480;28;20029;-70
2023/08/18 13:51:13;;;;;;;15.98;11.32;;;;;;;;;;5038472;28;20067;-70
2023/08/18 13:53:38;;;;;;;17.98;11.30;;;;;;;;;;5040479;28;20032;-70
2023/08/18 13:56:06;;;;;;;19.30;11.40;;;;;;;;;;5040493;28;20033;-70
2023/08/18 13:58:31;;;;;;;18.73;11.10;;;;;;;;;;5042425;28;20029;-70
2023/08/18 14:00:59;;;;;;;18.05;11.05;;;;;;;;;;5042978;28;20041;-70
2023/08/18 14:03:25;;;;;;;15.30;10.00;;;;;;;;;;5044664;28;20036;-70
2023/08/18 14:05:50;;;;;;;17.33;11.50;;;;;;;;;;5034745;28;20612;-70
2023/08/18 14:08:16;;;;;;;17.48;12.00;;;;;;;;;;5028357;28;20104;-69
2023/08/18 14:10:41;;;;;;;16.80;11.38;;;;;;;;;;5041605;28;20043;-70
2023/08/18 14:13:07;;;;;;;19.92;12.15;;;;;;;;;;5036267;28;20410;-69